Time;durP1;ratioP1;P1;durP2;ratioP2;P2;SDS_P1;SDS_P2;PMS_P1;PMS_P2;Temp;Humidity;BMP_temperature;BMP_pressure;BME280_temperature;BME280_humidity;BME280_pressure;Samples;Min_cycle;Max_cycle;Signal;HPM_P1;HPM_P2
2023/06/21 00:03:19;;;;;;;17.07;15.37;;;19.20;1.00;;;;;;8268567;28;20243;-69
2023/06/21 00:07:23;;;;;;;16.63;15.13;;;19.20;53.00;;;;;;8274452;28;20207;-69
2023/06/21 00:11:24;;;;;;;17.93;16.13;;;19.10;99.90;;;;;;8268264;28;20187;-71
2023/06/21 00:15:25;;;;;;;16.83;15.07;;;19.00;99.90;;;;;;8270002;28;20219;-71
2023/06/21 00:19:26;;;;;;;16.50;14.97;;;19.00;99.90;;;;;;8269056;28;20187;-72
2023/06/21 00:23:27;;;;;;;16.40;14.70;;;19.00;1.00;;;;;;8276471;28;20198;-71
2023/06/21 00:27:31;;;;;;;16.43;14.83;;;18.90;1.00;;;;;;8267857;28;20185;-70
2023/06/21 00:31:32;;;;;;;15.63;14.23;;;18.80;60.90;;;;;;8267341;28;20199;-71
2023/06/21 00:35:33;;;;;;;15.23;13.83;;;18.80;99.90;;;;;;8264705;28;20223;-70
2023/06/21 00:39:34;;;;;;;14.80;13.33;;;18.60;99.90;;;;;;8271714;28;20187;-70
2023/06/21 00:43:36;;;;;;;13.70;12.50;;;18.50;1.00;;;;;;8267684;28;20180;-69
2023/06/21 00:47:40;;;;;;;14.30;13.00;;;18.50;99.90;;;;;;8264779;28;20191;-70
2023/06/21 00:51:42;;;;;;;13.47;12.27;;;18.40;99.90;;;;;;8269944;28;20203;-70
2023/06/21 00:55:43;;;;;;;14.80;13.37;;;18.30;1.00;;;;;;8270529;28;20211;-69
2023/06/21 00:59:45;;;;;;;14.23;12.90;;;18.20;99.90;;;;;;8272767;28;20188;-69
2023/06/21 01:03:45;;;;;;;15.27;13.30;;;18.10;99.90;;;;;;8268214;28;20239;-69
2023/06/21 01:08:02;;;;;;;16.00;14.50;;;18.00;1.00;;;;;;8266101;28;20196;-68
2023/06/21 01:12:07;;;;;;;15.47;13.93;;;17.90;1.00;;;;;;8263695;28;20278;-69
2023/06/21 01:16:13;;;;;;;15.30;13.77;;;17.90;1.00;;;;;;8271083;28;20212;-69
2023/06/21 01:20:23;;;;;;;14.50;13.10;;;17.90;99.90;;;;;;8271254;28;20188;-69
2023/06/21 01:24:33;;;;;;;17.03;13.67;;;17.90;99.90;;;;;;8264949;28;20187;-70
2023/06/21 01:28:55;;;;;;;15.27;13.67;;;17.80;1.00;;;;;;8264444;28;20202;-68
2023/06/21 01:32:56;;;;;;;14.83;13.43;;;17.80;99.90;;;;;;8267857;28;20197;-69
2023/06/21 01:37:00;;;;;;;14.93;13.50;;;17.80;1.00;;;;;;8271878;28;20218;-69
2023/06/21 01:41:10;;;;;;;14.60;13.20;;;17.80;1.00;;;;;;8266648;28;20183;-69
2023/06/21 01:45:11;;;;;;;15.37;13.93;;;17.70;1.00;;;;;;8260961;28;20192;-70
2023/06/21 01:49:14;;;;;;;15.67;14.10;;;17.60;1.00;;;;;;8267597;28;20203;-69
2023/06/21 01:53:16;;;;;;;14.27;12.97;;;17.60;25.40;;;;;;8268081;28;20199;-70
2023/06/21 01:57:18;;;;;;;15.07;13.57;;;17.60;99.90;;;;;;8272359;28;20210;-70
2023/06/21 02:01:26;;;;;;;15.17;13.80;;;17.50;99.90;;;;;;8268378;28;20233;-70
2023/06/21 02:05:28;;;;;;;15.47;13.97;;;17.50;1.00;;;;;;8265254;28;20207;-70
2023/06/21 02:09:31;;;;;;;15.23;13.77;;;17.60;1.00;;;;;;8278362;28;20195;-69
2023/06/21 02:13:32;;;;;;;17.47;15.57;;;17.60;41.00;;;;;;8268477;28;20202;-69
2023/06/21 02:17:33;;;;;;;18.60;16.80;;;17.70;99.90;;;;;;8268618;28;20211;-69
2023/06/21 02:21:34;;;;;;;17.60;15.80;;;17.80;99.90;;;;;;8274044;28;20188;-69
2023/06/21 02:25:36;;;;;;;17.47;15.77;;;17.80;99.90;;;;;;8266997;28;20187;-69
2023/06/21 02:29:37;;;;;;;19.80;17.70;;;17.80;99.90;;;;;;8263488;28;20207;-69
2023/06/21 02:33:42;;;;;;;21.33;18.33;;;17.80;99.90;;;;;;8268158;28;20203;-68
2023/06/21 02:37:43;;;;;;;20.40;18.50;;;17.90;1.00;;;;;;8267393;28;20216;-69
2023/06/21 02:41:47;;;;;;;18.93;17.03;;;18.00;99.90;;;;;;8264391;28;20199;-69
2023/06/21 02:45:47;;;;;;;18.63;16.83;;;18.10;99.90;;;;;;8265344;28;20188;-69
2023/06/21 02:49:48;;;;;;;19.20;17.27;;;18.10;99.90;;;;;;8261751;28;20223;-69
2023/06/21 02:53:49;;;;;;;18.30;16.50;;;18.20;99.90;;;;;;8268054;28;20271;-69
2023/06/21 02:57:50;;;;;;;19.67;17.87;;;18.30;1.00;;;;;;8270061;28;20211;-74
2023/06/21 03:01:51;;;;;;;17.73;16.13;;;18.50;1.00;;;;;;8268082;28;20216;-73
2023/06/21 03:05:52;;;;;;;18.10;16.27;;;18.60;1.00;;;;;;8268392;28;20203;-73
2023/06/21 03:09:54;;;;;;;17.27;15.57;;;18.70;99.90;;;;;;8279004;28;20318;-73
2023/06/21 03:13:55;;;;;;;16.70;15.10;;;18.80;1.00;;;;;;8271508;28;20238;-73
2023/06/21 03:17:55;;;;;;;17.77;16.07;;;18.80;99.90;;;;;;8270610;28;20215;-73
2023/06/21 03:21:56;;;;;;;20.10;18.27;;;18.90;99.90;;;;;;8273578;28;20204;-74
2023/06/21 03:25:57;;;;;;;19.60;17.60;;;19.00;99.90;;;;;;8270356;28;20187;-73
2023/06/21 03:30:04;;;;;;;18.93;17.03;;;19.00;99.90;;;;;;8271055;28;20195;-71
2023/06/21 03:34:05;;;;;;;22.07;17.63;;;18.80;99.90;;;;;;8272767;28;20225;-72
2023/06/21 03:38:07;;;;;;;21.43;18.13;;;18.60;99.90;;;;;;8276683;28;20222;-72
2023/06/21 03:42:08;;;;;;;20.23;18.23;;;18.60;1.00;;;;;;8269897;28;20214;-70
2023/06/21 03:46:09;;;;;;;21.43;19.00;;;18.60;99.90;;;;;;8270808;28;20254;-70
2023/06/21 03:50:11;;;;;;;20.07;18.00;;;18.80;42.40;;;;;;8271154;28;20187;-73
2023/06/21 03:54:12;;;;;;;18.33;16.63;;;19.10;99.90;;;;;;8273415;28;20210;-71
2023/06/21 03:58:13;;;;;;;18.00;16.27;;;19.30;1.00;;;;;;8271992;28;20727;-68
2023/06/21 04:02:18;;;;;;;17.63;15.87;;;19.50;76.30;;;;;;8271038;28;20242;-67
2023/06/21 04:06:20;;;;;;;17.53;15.83;;;19.70;1.00;;;;;;8267757;28;20234;-72
2023/06/21 04:10:20;;;;;;;17.73;15.83;;;19.80;1.00;;;;;;8272717;28;20199;-72
2023/06/21 04:14:25;;;;;;;15.63;14.13;;;19.80;99.90;;;;;;8270133;28;20226;-72
2023/06/21 04:18:26;;;;;;;15.73;14.23;;;19.90;99.90;;;;;;8279945;28;20215;-72
2023/06/21 04:22:28;;;;;;;18.03;14.20;;;19.90;99.90;;;;;;8269314;28;20201;-73
2023/06/21 04:26:29;;;;;;;16.70;14.10;;;19.90;99.90;;;;;;8276051;28;20323;-75
2023/06/21 04:30:34;;;;;;;20.57;16.73;;;20.00;99.90;;;;;;8271638;28;20282;-74
2023/06/21 04:34:43;;;;;;;15.70;14.20;;;20.00;99.90;;;;;;8270450;28;20200;-72
2023/06/21 04:38:48;;;;;;;17.47;15.67;;;20.00;99.90;;;;;;8274723;28;20250;-72
2023/06/21 04:42:54;;;;;;;17.20;15.33;;;20.00;99.90;;;;;;8274180;28;20190;-73
2023/06/21 04:46:55;;;;;;;17.87;16.17;;;20.00;99.90;;;;;;8289462;28;20184;-72
2023/06/21 04:50:56;;;;;;;17.50;15.57;;;19.90;99.90;;;;;;8273438;28;20196;-72
2023/06/21 04:55:01;;;;;;;17.63;15.90;;;19.90;99.90;;;;;;8270543;28;20203;-72
2023/06/21 04:59:08;;;;;;;18.03;16.13;;;20.00;99.90;;;;;;8270646;28;20194;-71
2023/06/21 05:03:09;;;;;;;18.13;15.63;;;20.10;99.90;;;;;;8270040;28;20195;-71
2023/06/21 05:07:12;;;;;;;15.20;13.77;;;20.20;99.90;;;;;;8273357;28;20187;-69
2023/06/21 05:11:14;;;;;;;15.67;14.17;;;20.30;99.90;;;;;;8273049;28;20203;-71
2023/06/21 05:15:15;;;;;;;17.60;15.73;;;20.40;99.90;;;;;;8273062;28;20211;-71
2023/06/21 05:19:16;;;;;;;14.87;13.33;;;20.40;99.90;;;;;;8264982;28;20194;-69
2023/06/21 05:23:17;;;;;;;14.03;12.77;;;20.40;99.90;;;;;;8267130;28;20190;-71
2023/06/21 05:27:19;;;;;;;14.43;13.03;;;20.40;99.90;;;;;;8263277;28;20192;-68
2023/06/21 05:31:19;;;;;;;13.57;12.20;;;20.30;99.90;;;;;;8272058;28;20199;-70
2023/06/21 05:35:20;;;;;;;13.87;12.57;;;20.30;99.90;;;;;;8266072;28;20218;-69
2023/06/21 05:39:21;;;;;;;14.87;13.33;;;20.40;99.90;;;;;;8265899;28;20216;-70
2023/06/21 05:43:22;;;;;;;14.63;12.67;;;20.50;99.90;;;;;;8269504;28;20219;-69
2023/06/21 05:47:23;;;;;;;14.07;12.87;;;20.70;99.90;;;;;;8265473;28;20202;-68
2023/06/21 05:51:25;;;;;;;13.43;12.23;;;20.90;99.90;;;;;;8264358;28;20197;-69
2023/06/21 05:55:26;;;;;;;17.03;15.23;;;21.20;99.90;;;;;;8279818;28;20207;-69
2023/06/21 05:59:26;;;;;;;17.20;15.40;;;21.50;99.90;;;;;;8265571;28;20266;-69
2023/06/21 06:03:27;;;;;;;14.33;12.73;;;21.80;99.90;;;;;;8266374;28;20249;-68
2023/06/21 06:07:28;;;;;;;14.87;13.57;;;22.20;99.90;;;;;;8272588;28;20202;-70
2023/06/21 06:11:29;;;;;;;14.30;12.90;;;22.70;1.00;;;;;;8263164;28;20336;-70
2023/06/21 06:15:30;;;;;;;14.27;13.07;;;23.10;10.10;;;;;;8266042;28;20332;-70
2023/06/21 06:19:31;;;;;;;14.33;13.03;;;23.40;99.90;;;;;;8267758;28;20183;-70
2023/06/21 06:23:32;;;;;;;18.10;13.47;;;23.90;1.00;;;;;;8265139;28;20186;-70
2023/06/21 06:27:33;;;;;;;14.53;13.10;;;24.30;99.90;;;;;;8273157;28;20222;-68
2023/06/21 06:31:34;;;;;;;15.38;13.73;;;24.80;99.90;;;;;;8278751;28;20187;-70
2023/06/21 06:35:35;;;;;;;14.88;13.45;;;25.10;99.50;;;;;;8269803;28;20211;-67
2023/06/21 06:39:36;;;;;;;16.63;15.00;;;25.30;27.60;;;;;;8277435;28;20188;-70
2023/06/21 06:43:37;;;;;;;15.13;13.07;;;25.70;1.00;;;;;;8270317;28;20187;-72
2023/06/21 06:47:39;;;;;;;14.27;13.02;;;26.00;1.00;;;;;;8269837;28;20202;-71
2023/06/21 06:51:42;;;;;;;13.07;11.88;;;25.90;99.90;;;;;;8259607;28;20466;-69
2023/06/21 06:55:44;;;;;;;14.63;13.30;;;26.00;99.90;;;;;;8268974;28;20204;-69
2023/06/21 06:59:44;;;;;;;13.97;12.73;;;25.80;99.90;;;;;;8278306;28;20180;-70
2023/06/21 07:03:48;;;;;;;14.18;12.90;;;25.40;1.00;;;;;;8271955;28;20220;-69
2023/06/21 07:07:50;;;;;;;16.30;14.87;;;25.10;1.00;;;;;;8273207;28;20195;-71
2023/06/21 07:11:51;;;;;;;17.50;14.90;;;25.10;52.20;;;;;;8274559;28;20191;-71
2023/06/21 07:15:53;;;;;;;17.00;14.65;;;25.30;1.00;;;;;;8273084;28;20254;-70
2023/06/21 07:19:54;;;;;;;15.98;14.57;;;25.60;1.00;;;;;;8262748;28;20187;-72
2023/06/21 07:23:55;;;;;;;15.05;13.70;;;26.00;1.00;;;;;;8274210;28;20188;-72
2023/06/21 07:27:56;;;;;;;16.35;14.30;;;26.10;99.90;;;;;;8270893;28;20187;-68
2023/06/21 07:31:57;;;;;;;16.65;14.98;;;26.00;99.90;;;;;;8268372;28;20273;-71
2023/06/21 07:35:59;;;;;;;17.65;16.05;;;26.10;99.90;;;;;;8276444;28;20303;-72
2023/06/21 07:40:01;;;;;;;16.65;15.15;;;26.10;99.90;;;;;;8270409;28;20187;-70
2023/06/21 07:44:03;;;;;;;16.13;14.43;;;26.30;99.90;;;;;;8272510;28;20192;-71
2023/06/21 07:48:04;;;;;;;15.63;13.35;;;26.70;99.90;;;;;;8272459;28;20198;-70
2023/06/21 07:52:05;;;;;;;13.35;11.88;;;26.80;99.90;;;;;;8269631;28;20202;-74
2023/06/21 07:56:06;;;;;;;11.10;10.02;;;26.90;99.90;;;;;;8269023;28;20215;-73
2023/06/21 08:00:14;;;;;;;10.57;9.63;;;26.90;87.00;;;;;;8273961;28;20270;-70
2023/06/21 08:04:15;;;;;;;9.27;8.27;;;26.90;90.50;;;;;;8284908;28;20244;-72
2023/06/21 08:08:17;;;;;;;9.63;8.70;;;27.20;10.70;;;;;;8269547;28;20207;-72
2023/06/21 08:12:21;;;;;;;11.73;8.55;;;27.30;1.00;;;;;;8272107;28;20210;-75
2023/06/21 08:16:22;;;;;;;8.95;7.50;;;27.40;1.00;;;;;;8259648;28;20211;-73
2023/06/21 08:20:24;;;;;;;9.38;8.40;;;27.50;1.00;;;;;;8276406;28;20175;-73
2023/06/21 08:24:28;;;;;;;9.45;7.82;;;27.60;1.00;;;;;;8268640;28;20184;-73
2023/06/21 08:28:30;;;;;;;8.23;7.35;;;27.80;1.00;;;;;;8270708;28;20226;-73
2023/06/21 08:32:32;;;;;;;12.27;6.60;;;28.00;1.00;;;;;;8271432;28;20191;-72
2023/06/21 08:36:33;;;;;;;8.75;6.13;;;27.90;1.00;;;;;;8272539;28;20208;-73
2023/06/21 08:40:37;;;;;;;7.90;6.47;;;27.80;1.00;;;;;;8273325;28;20179;-71
2023/06/21 08:44:38;;;;;;;7.57;5.93;;;27.90;1.00;;;;;;8275105;28;20188;-72
2023/06/21 08:48:44;;;;;;;7.43;6.30;;;28.00;1.00;;;;;;8268245;28;20187;-71
2023/06/21 08:52:48;;;;;;;7.53;6.75;;;28.10;1.00;;;;;;8284745;28;20190;-72
2023/06/21 08:57:03;;;;;;;8.77;6.78;;;28.10;1.00;;;;;;8269822;28;20238;-71
2023/06/21 09:01:07;;;;;;;7.57;6.20;;;28.30;1.00;;;;;;8273022;28;20330;-69
2023/06/21 09:05:28;;;;;;;6.90;6.20;;;28.70;1.00;;;;;;8257638;28;20211;-73
2023/06/21 09:09:33;;;;;;;7.25;6.05;;;28.90;1.00;;;;;;8272928;28;20199;-72
2023/06/21 09:13:34;;;;;;;8.88;5.90;;;29.00;1.00;;;;;;8283171;28;20195;-73
2023/06/21 09:17:37;;;;;;;7.55;5.45;;;29.20;1.00;;;;;;8253314;28;20215;-72
2023/06/21 09:21:40;;;;;;;6.70;5.47;;;29.30;1.00;;;;;;8273890;28;20262;-71
2023/06/21 09:25:45;;;;;;;9.15;5.28;;;29.30;1.00;;;;;;8285343;28;20187;-72
2023/06/21 09:29:46;;;;;;;5.32;4.57;;;29.40;1.00;;;;;;8269528;28;20194;-72
2023/06/21 09:33:48;;;;;;;7.53;5.30;;;29.50;1.00;;;;;;8272926;28;20189;-74
2023/06/21 09:37:49;;;;;;;6.05;5.03;;;29.50;1.00;;;;;;8270629;28;20277;-70
2023/06/21 09:41:53;;;;;;;6.90;4.85;;;29.40;1.00;;;;;;8266356;28;20227;-74
2023/06/21 09:46:05;;;;;;;6.82;5.22;;;29.60;1.00;;;;;;8274147;28;20242;-72
2023/06/21 09:50:06;;;;;;;9.63;5.30;;;29.50;1.00;;;;;;8264480;28;20187;-69
2023/06/21 09:54:11;;;;;;;6.05;5.20;;;29.50;1.00;;;;;;8273061;28;20191;-73
2023/06/21 09:58:14;;;;;;;6.25;4.68;;;29.30;1.00;;;;;;8270317;28;20238;-71
2023/06/21 10:02:15;;;;;;;6.20;5.25;;;29.20;1.00;;;;;;8265378;28;20187;-71
2023/06/21 10:06:16;;;;;;;7.05;4.32;;;29.70;1.00;;;;;;8269696;28;20215;-67
2023/06/21 10:10:19;;;;;;;8.00;4.82;;;29.80;1.00;;;;;;8273221;28;20187;-73
2023/06/21 10:14:26;;;;;;;6.18;4.80;;;29.80;1.00;;;;;;8251603;28;20198;-72
2023/06/21 10:18:29;;;;;;;6.20;4.90;;;29.60;1.00;;;;;;8270673;28;20207;-72
2023/06/21 10:22:33;;;;;;;6.68;5.22;;;29.70;1.00;;;;;;8279193;28;20223;-71
2023/06/21 10:26:34;;;;;;;6.00;4.85;;;29.80;1.00;;;;;;8278074;28;20187;-69
2023/06/21 10:30:38;;;;;;;5.80;5.10;;;29.90;1.00;;;;;;8274863;28;20242;-73
2023/06/21 10:34:58;;;;;;;5.88;4.85;;;29.90;1.00;;;;;;8278047;28;20198;-72
2023/06/21 10:39:06;;;;;;;6.22;4.65;;;29.70;1.00;;;;;;8290819;28;20275;-71
2023/06/21 10:43:08;;;;;;;5.45;4.13;;;29.40;1.00;;;;;;8274288;28;20187;-71
2023/06/21 10:47:09;;;;;;;4.25;3.85;;;29.40;1.00;;;;;;8273131;28;20196;-70
2023/06/21 10:51:13;;;;;;;6.93;4.53;;;29.60;1.00;;;;;;8271885;28;20187;-72
2023/06/21 10:55:14;;;;;;;5.30;4.80;;;29.90;1.00;;;;;;8274747;28;20198;-72
2023/06/21 10:59:17;;;;;;;4.82;4.43;;;30.30;1.00;;;;;;8270702;28;20191;-71
2023/06/21 11:03:37;;;;;;;4.90;4.40;;;30.60;1.00;;;;;;8275341;28;20210;-72
2023/06/21 11:07:57;;;;;;;5.82;4.70;;;30.70;1.00;;;;;;8274077;28;20228;-70
2023/06/21 11:11:58;;;;;;;8.40;4.47;;;30.60;1.00;;;;;;8284834;28;20321;-71
2023/06/21 11:16:10;;;;;;;5.03;4.40;;;30.70;1.00;;;;;;8271822;28;20277;-72
2023/06/21 11:20:22;;;;;;;4.63;4.22;;;30.70;99.90;;;;;;8286221;28;20198;-73
2023/06/21 11:24:26;;;;;;;8.63;4.63;;;31.00;99.90;;;;;;8274543;28;20179;-70
2023/06/21 11:28:31;;;;;;;6.95;4.43;;;31.10;99.90;;;;;;8272333;28;20188;-72
2023/06/21 11:32:37;;;;;;;4.97;4.57;;;31.10;99.90;;;;;;8266711;28;20202;-71
2023/06/21 11:36:39;;;;;;;7.30;4.75;;;31.10;99.90;;;;;;8259686;28;20227;-72
2023/06/21 11:40:40;;;;;;;5.88;4.90;;;30.80;99.90;;;;;;8284972;28;20192;-71
2023/06/21 11:44:41;;;;;;;5.28;4.53;;;30.30;99.90;;;;;;8269865;28;20188;-70
2023/06/21 11:48:43;;;;;;;5.57;4.00;;;30.30;99.90;;;;;;8269368;28;20274;-72
2023/06/21 11:52:44;;;;;;;5.50;4.57;;;30.50;99.90;;;;;;8285834;28;20198;-72
2023/06/21 11:56:45;;;;;;;7.18;3.97;;;30.80;99.90;;;;;;8270067;28;20257;-69
2023/06/21 12:00:46;;;;;;;4.75;4.25;;;31.20;99.90;;;;;;8270299;28;20179;-71
2023/06/21 12:04:50;;;;;;;5.53;4.47;;;31.70;99.90;;;;;;8268108;28;20452;-71
2023/06/21 12:08:57;;;;;;;4.80;4.15;;;31.80;99.90;;;;;;8269738;28;20226;-72
2023/06/21 12:12:58;;;;;;;6.68;5.05;;;32.10;99.90;;;;;;8270757;28;20187;-72
2023/06/21 12:17:03;;;;;;;6.80;5.32;;;31.70;99.90;;;;;;8270882;28;20207;-71
2023/06/21 12:21:07;;;;;;;5.13;4.63;;;31.20;99.90;;;;;;8269061;28;20215;-71
2023/06/21 12:25:08;;;;;;;6.18;4.63;;;30.70;99.90;;;;;;8271076;28;20183;-72
2023/06/21 12:29:09;;;;;;;5.75;5.25;;;30.70;99.90;;;;;;8270964;28;20223;-70
2023/06/21 12:33:23;;;;;;;6.00;5.43;;;31.20;99.90;;;;;;8269614;28;20179;-70
2023/06/21 12:37:24;;;;;;;5.72;5.00;;;31.60;99.90;;;;;;8267781;28;20203;-71
2023/06/21 12:41:27;;;;;;;7.63;5.07;;;31.70;99.90;;;;;;8251840;28;20202;-72
2023/06/21 12:45:28;;;;;;;5.38;4.88;;;31.60;99.90;;;;;;8270718;28;20271;-74
2023/06/21 12:49:29;;;;;;;6.75;5.30;;;31.40;99.90;;;;;;8273528;28;20191;-70
2023/06/21 12:53:37;;;;;;;5.18;4.68;;;31.50;99.90;;;;;;8267835;28;20278;-73
2023/06/21 12:57:44;;;;;;;6.07;5.32;;;31.60;99.90;;;;;;8274117;28;20353;-72
2023/06/21 13:01:45;;;;;;;5.18;4.68;;;31.60;99.90;;;;;;8267716;28;20183;-71
2023/06/21 13:05:47;;;;;;;5.70;5.20;;;31.60;99.90;;;;;;8275560;28;20203;-74
2023/06/21 13:09:49;;;;;;;6.90;5.72;;;31.90;99.90;;;;;;8269500;28;20215;-74
2023/06/21 13:13:50;;;;;;;6.03;5.00;;;31.50;99.90;;;;;;8270373;28;20199;-74
2023/06/21 13:17:51;;;;;;;9.68;5.38;;;31.70;99.90;;;;;;8279769;28;20265;-70
2023/06/21 13:21:52;;;;;;;7.28;5.35;;;31.60;99.90;;;;;;8267093;28;20211;-72
2023/06/21 13:25:54;;;;;;;6.57;5.18;;;31.50;99.90;;;;;;8264725;28;20234;-73
2023/06/21 13:29:56;;;;;;;5.50;4.90;;;31.50;99.90;;;;;;8267159;28;20247;-72
2023/06/21 13:33:57;;;;;;;5.28;4.47;;;31.50;99.90;;;;;;8270512;28;20183;-71
2023/06/21 13:37:58;;;;;;;6.60;4.57;;;31.60;99.90;;;;;;8269973;28;20343;-69
2023/06/21 13:42:00;;;;;;;5.68;4.72;;;31.20;99.90;;;;;;8266849;28;20294;-72
2023/06/21 13:46:03;;;;;;;6.30;4.80;;;31.00;99.90;;;;;;8264728;28;20191;-73
2023/06/21 13:50:06;;;;;;;6.50;4.88;;;31.30;99.90;;;;;;8265429;28;20184;-71
2023/06/21 13:54:07;;;;;;;7.75;4.60;;;31.10;99.90;;;;;;8270473;28;20203;-72
2023/06/21 13:58:11;;;;;;;5.72;4.78;;;31.00;99.90;;;;;;8265058;28;20214;-71
2023/06/21 14:02:12;;;;;;;7.78;5.18;;;31.20;99.90;;;;;;8266973;28;20195;-73
2023/06/21 14:06:13;;;;;;;5.10;4.60;;;31.50;99.90;;;;;;8250259;28;20214;-69
2023/06/21 14:10:15;;;;;;;5.40;4.90;;;31.70;99.90;;;;;;8271847;28;20199;-72
2023/06/21 14:14:16;;;;;;;5.65;4.95;;;31.80;99.90;;;;;;8268277;28;20254;-72
2023/06/21 14:18:16;;;;;;;7.25;4.93;;;31.90;99.90;;;;;;8266090;28;20215;-72
2023/06/21 14:22:18;;;;;;;5.65;5.10;;;31.70;99.90;;;;;;8265676;28;20188;-71
2023/06/21 14:26:19;;;;;;;5.70;5.05;;;31.80;99.90;;;;;;8269814;28;20191;-72
2023/06/21 14:30:20;;;;;;;5.80;5.00;;;31.70;99.90;;;;;;8267444;28;20215;-72
2023/06/21 14:34:21;;;;;;;6.40;5.63;;;31.80;99.90;;;;;;8267842;28;20269;-73
2023/06/21 14:38:27;;;;;;;6.03;5.38;;;31.90;99.90;;;;;;8250165;28;20274;-72
2023/06/21 14:42:29;;;;;;;5.28;4.82;;;32.10;99.90;;;;;;8270491;28;20195;-72
2023/06/21 14:46:36;;;;;;;6.47;5.20;;;32.00;99.90;;;;;;8268397;28;20215;-70
2023/06/21 14:50:38;;;;;;;8.30;5.32;;;31.40;99.90;;;;;;8263892;28;20187;-72
2023/06/21 14:54:41;;;;;;;8.85;5.00;;;31.20;99.90;;;;;;8265848;28;20187;-72
2023/06/21 14:58:46;;;;;;;5.40;4.90;;;31.10;99.90;;;;;;8269044;28;20246;-71
2023/06/21 15:02:46;;;;;;;10.18;5.70;;;31.00;99.90;;;;;;8282616;28;20234;-71
2023/06/21 15:06:50;;;;;;;6.93;5.20;;;31.10;99.90;;;;;;8274709;28;20214;-71
2023/06/21 15:10:52;;;;;;;5.72;4.75;;;31.00;99.90;;;;;;8275549;28;20203;-71
2023/06/21 15:14:54;;;;;;;7.80;5.03;;;30.90;99.90;;;;;;8272798;28;20202;-71
2023/06/21 15:18:55;;;;;;;5.88;4.72;;;30.80;99.90;;;;;;8275090;28;20211;-69
2023/06/21 15:22:57;;;;;;;5.55;4.55;;;30.60;99.90;;;;;;8273557;28;20189;-71
2023/06/21 15:26:57;;;;;;;5.03;4.53;;;30.80;99.90;;;;;;8256361;28;20195;-71
2023/06/21 15:30:58;;;;;;;6.93;4.50;;;30.90;99.90;;;;;;8273573;28;20233;-72
2023/06/21 15:34:59;;;;;;;5.07;4.60;;;30.80;99.90;;;;;;8270039;28;20204;-71
2023/06/21 15:39:00;;;;;;;8.63;4.40;;;30.90;99.90;;;;;;8274132;28;20212;-72
2023/06/21 15:43:01;;;;;;;5.47;4.55;;;31.10;99.90;;;;;;8274718;28;20207;-70
2023/06/21 15:47:03;;;;;;;5.10;4.47;;;30.90;99.90;;;;;;8269140;28;20190;-70
2023/06/21 15:51:04;;;;;;;5.80;4.47;;;30.80;99.90;;;;;;8271020;28;20195;-71
2023/06/21 15:55:06;;;;;;;5.15;4.28;;;31.00;99.90;;;;;;8267484;28;20186;-71
2023/06/21 15:59:07;;;;;;;7.53;4.43;;;31.10;99.90;;;;;;8272246;28;20222;-70
2023/06/21 16:03:10;;;;;;;5.35;4.78;;;31.00;99.90;;;;;;8268059;28;20199;-69
2023/06/21 16:07:11;;;;;;;6.90;4.85;;;31.00;99.90;;;;;;8273617;28;20187;-70
2023/06/21 16:11:12;;;;;;;5.50;4.50;;;30.80;99.90;;;;;;8272850;28;20187;-72
2023/06/21 16:15:13;;;;;;;7.43;4.60;;;30.60;99.90;;;;;;8266817;28;20204;-72
2023/06/21 16:19:14;;;;;;;6.32;4.57;;;30.60;99.90;;;;;;8270198;28;20223;-70
2023/06/21 16:23:15;;;;;;;5.43;4.93;;;30.50;99.90;;;;;;8268747;28;20192;-71
2023/06/21 16:27:16;;;;;;;5.53;4.70;;;30.30;99.90;;;;;;8273585;28;20226;-70
2023/06/21 16:31:20;;;;;;;5.82;4.72;;;30.10;99.90;;;;;;8270071;28;20246;-70
2023/06/21 16:35:21;;;;;;;5.68;5.13;;;29.90;99.90;;;;;;8268964;28;20200;-71
2023/06/21 16:39:22;;;;;;;5.85;4.35;;;29.80;99.90;;;;;;8267653;28;20192;-71
2023/06/21 16:43:26;;;;;;;7.80;4.47;;;29.60;99.90;;;;;;8269985;28;20195;-72
2023/06/21 16:47:30;;;;;;;5.10;4.60;;;29.60;99.90;;;;;;8265995;28;20273;-70
2023/06/21 16:51:31;;;;;;;7.05;4.35;;;29.60;99.90;;;;;;8270791;28;20250;-71
2023/06/21 16:55:35;;;;;;;6.45;4.25;;;29.70;99.90;;;;;;8267665;28;20183;-70
2023/06/21 16:59:39;;;;;;;4.88;4.22;;;29.80;99.90;;;;;;8268434;28;20207;-71
2023/06/21 17:03:41;;;;;;;5.75;4.18;;;29.70;99.90;;;;;;8268454;28;20211;-70
2023/06/21 17:07:42;;;;;;;7.70;4.38;;;29.70;99.90;;;;;;8269588;28;20267;-72
2023/06/21 17:11:46;;;;;;;4.95;3.88;;;29.60;99.90;;;;;;8267617;28;20192;-71
2023/06/21 17:15:47;;;;;;;6.93;4.28;;;29.50;99.90;;;;;;8264988;28;20204;-72
2023/06/21 17:19:48;;;;;;;7.88;4.55;;;29.40;99.90;;;;;;8268548;28;20190;-72
2023/06/21 17:23:49;;;;;;;4.70;4.30;;;29.30;99.90;;;;;;8267416;28;20238;-70
2023/06/21 17:27:53;;;;;;;4.85;4.45;;;29.20;99.90;;;;;;8269268;28;20187;-71
2023/06/21 17:31:57;;;;;;;5.35;4.78;;;29.00;99.90;;;;;;8266321;28;20282;-71
2023/06/21 17:35:58;;;;;;;5.53;4.00;;;29.50;99.90;;;;;;8269499;28;20382;-72
2023/06/21 17:40:00;;;;;;;4.82;4.07;;;30.60;99.90;;;;;;8266733;28;20179;-72
2023/06/21 17:44:01;;;;;;;4.15;3.75;;;31.40;99.90;;;;;;8265806;28;20189;-73
2023/06/21 17:48:06;;;;;;;5.00;4.50;;;31.90;99.90;;;;;;8271724;28;20198;-73
2023/06/21 17:52:07;;;;;;;5.13;4.07;;;32.00;99.90;;;;;;8275364;28;20255;-71
2023/06/21 17:56:08;;;;;;;4.50;4.10;;;32.30;99.90;;;;;;8266887;28;20235;-72
2023/06/21 18:00:21;;;;;;;5.28;4.00;;;32.50;99.90;;;;;;8266764;28;20190;-73
2023/06/21 18:04:22;;;;;;;5.70;4.10;;;32.30;99.90;;;;;;8270753;28;20204;-72
2023/06/21 18:08:23;;;;;;;5.32;4.50;;;31.60;99.90;;;;;;8269577;28;20279;-71
2023/06/21 18:12:24;;;;;;;5.32;4.82;;;30.90;99.90;;;;;;8268963;28;20227;-72
2023/06/21 18:16:25;;;;;;;5.00;4.50;;;30.30;99.90;;;;;;8270933;28;20224;-72
2023/06/21 18:20:26;;;;;;;5.38;4.88;;;29.70;99.90;;;;;;8269849;28;20192;-70
2023/06/21 18:24:27;;;;;;;7.55;4.65;;;29.10;99.90;;;;;;8267610;28;20215;-71
2023/06/21 18:28:31;;;;;;;6.30;4.57;;;28.50;99.90;;;;;;8264361;28;20196;-70
2023/06/21 18:32:34;;;;;;;5.45;4.38;;;28.10;99.90;;;;;;8266609;28;20265;-70
2023/06/21 18:36:35;;;;;;;6.03;4.97;;;27.90;99.90;;;;;;8266555;28;20214;-70
2023/06/21 18:40:36;;;;;;;6.90;5.18;;;27.70;99.90;;;;;;8267349;28;20183;-70
2023/06/21 18:44:37;;;;;;;7.68;4.63;;;27.70;99.90;;;;;;8272986;28;20187;-72
2023/06/21 18:48:39;;;;;;;5.85;5.25;;;27.70;99.90;;;;;;8275752;28;20191;-72
2023/06/21 18:52:40;;;;;;;6.13;4.80;;;27.50;99.90;;;;;;8272415;28;20214;-72
2023/06/21 18:56:44;;;;;;;5.10;4.60;;;27.20;99.90;;;;;;8275402;28;20211;-72
2023/06/21 19:00:46;;;;;;;9.73;5.30;;;27.00;99.90;;;;;;8272224;28;20195;-72
2023/06/21 19:04:47;;;;;;;12.82;4.63;;;26.90;1.00;;;;;;8285802;28;20207;-72
2023/06/21 19:08:50;;;;;;;6.82;5.07;;;26.70;1.00;;;;;;8274064;28;20195;-71
2023/06/21 19:12:51;;;;;;;6.07;4.30;;;26.40;1.00;;;;;;8271383;28;20195;-72
2023/06/21 19:16:52;;;;;;;5.30;4.80;;;26.20;1.00;;;;;;8271246;28;20207;-71
2023/06/21 19:20:53;;;;;;;4.87;4.37;;;25.90;1.00;;;;;;8272845;28;20349;-71
2023/06/21 19:24:55;;;;;;;6.63;5.00;;;25.70;1.00;;;;;;8273264;28;20233;-72
2023/06/21 19:28:56;;;;;;;6.87;5.20;;;25.40;1.00;;;;;;8271645;28;20288;-71
2023/06/21 19:33:00;;;;;;;6.17;5.53;;;25.20;1.00;;;;;;8275130;28;20188;-71
2023/06/21 19:37:01;;;;;;;6.40;4.83;;;25.10;1.00;;;;;;8271087;28;20219;-71
2023/06/21 19:41:02;;;;;;;5.90;5.33;;;24.90;1.00;;;;;;8280552;28;20195;-70
2023/06/21 19:45:04;;;;;;;5.93;5.27;;;24.70;1.00;;;;;;8287206;28;20179;-71
2023/06/21 19:49:06;;;;;;;6.43;5.83;;;24.40;1.00;;;;;;8269613;28;20225;-70
2023/06/21 19:53:07;;;;;;;6.13;5.63;;;24.20;1.00;;;;;;8272467;28;20187;-70
2023/06/21 19:57:12;;;;;;;7.10;6.37;;;24.00;1.00;;;;;;8268050;28;20241;-69
2023/06/21 20:01:13;;;;;;;6.87;6.17;;;23.90;1.00;;;;;;8269252;28;20183;-69
2023/06/21 20:05:14;;;;;;;7.63;5.80;;;23.60;27.60;;;;;;8270572;28;20227;-70
2023/06/21 20:09:16;;;;;;;6.47;5.87;;;23.30;77.30;;;;;;8271580;28;20196;-72
2023/06/21 20:13:17;;;;;;;7.20;6.60;;;23.10;99.90;;;;;;8265574;28;20187;-71
2023/06/21 20:17:19;;;;;;;7.10;6.40;;;22.90;99.90;;;;;;8273011;28;20215;-71
2023/06/21 20:21:21;;;;;;;7.10;6.47;;;22.70;99.90;;;;;;8268193;28;20192;-70
2023/06/21 20:25:24;;;;;;;7.67;6.97;;;22.60;99.90;;;;;;8265755;28;20211;-70
2023/06/21 20:29:25;;;;;;;7.43;6.30;;;22.60;99.90;;;;;;8272755;28;20188;-69
2023/06/21 20:33:26;;;;;;;7.27;6.57;;;22.50;99.90;;;;;;8267194;28;20238;-70
2023/06/21 20:37:27;;;;;;;6.73;6.13;;;22.50;99.90;;;;;;8264961;28;20211;-71
2023/06/21 20:41:28;;;;;;;7.27;6.57;;;22.50;99.90;;;;;;8265086;28;20239;-70
2023/06/21 20:45:32;;;;;;;7.07;6.47;;;22.50;99.90;;;;;;8268205;28;20190;-71
2023/06/21 20:49:33;;;;;;;7.73;7.03;;;22.40;99.90;;;;;;8280384;28;20252;-70
2023/06/21 20:53:34;;;;;;;7.70;7.00;;;22.40;99.90;;;;;;8270263;28;20187;-70
2023/06/21 20:57:36;;;;;;;7.20;6.50;;;22.30;99.90;;;;;;8262440;28;20299;-71